createdAt,value
2019-05-17T00:01:34.446Z,10.02
2019-05-17T00:04:01.878Z,9.99
2019-05-17T00:06:29.281Z,9.69
2019-05-17T00:08:56.698Z,9.90
2019-05-17T00:11:24.161Z,9.89
2019-05-17T00:13:51.953Z,9.90
2019-05-17T00:16:19.301Z,9.72
2019-05-17T00:18:46.705Z,9.82
2019-05-17T00:21:14.117Z,10.05
2019-05-17T00:23:41.997Z,10.31
2019-05-17T00:26:09.388Z,10.24
2019-05-17T00:28:37.522Z,10.37
2019-05-17T00:31:06.655Z,10.40
2019-05-17T00:33:36.516Z,10.25
2019-05-17T00:36:03.785Z,10.35
2019-05-17T00:38:31.193Z,10.22
2019-05-17T00:40:58.581Z,10.35
2019-05-17T00:43:26.427Z,10.31
2019-05-17T00:45:53.806Z,10.10
2019-05-17T00:48:21.185Z,10.21
2019-05-17T00:50:53.427Z,10.27
2019-05-17T00:53:18.262Z,10.24
2019-05-17T00:55:46.756Z,10.13
2019-05-17T00:58:14.367Z,10.05
2019-05-17T01:00:41.726Z,10.09
2019-05-17T01:03:09.558Z,10.20
2019-05-17T01:05:37.218Z,10.30
2019-05-17T01:08:07.082Z,10.24
2019-05-17T01:10:33.936Z,10.18
2019-05-17T01:13:01.854Z,10.20
2019-05-17T01:15:29.332Z,9.90
2019-05-17T01:17:56.801Z,9.78
2019-05-17T01:20:24.266Z,9.71
2019-05-17T01:22:52.053Z,9.79
2019-05-17T01:25:19.421Z,9.89
2019-05-17T01:27:47.439Z,9.89
2019-05-17T01:30:17.532Z,9.73
2019-05-17T01:32:46.398Z,9.81
2019-05-17T01:35:16.521Z,9.90
2019-05-17T01:37:43.645Z,9.72
2019-05-17T01:40:11.916Z,9.79
2019-05-17T01:42:39.685Z,9.39
2019-05-17T01:45:08.626Z,9.58
2019-05-17T01:47:36.798Z,9.45
2019-05-17T01:50:06.849Z,9.45
2019-05-17T01:52:37.029Z,9.50
2019-05-17T01:55:06.510Z,9.40
2019-05-17T01:57:33.902Z,9.46
2019-05-17T02:00:01.314Z,9.43
2019-05-17T02:02:33.870Z,9.57
2019-05-17T02:05:01.728Z,9.44
2019-05-17T02:07:29.160Z,9.50
2019-05-17T02:09:56.949Z,9.61
2019-05-17T02:12:26.675Z,9.70
2019-05-17T02:14:54.285Z,9.63
2019-05-17T02:17:21.686Z,9.73
2019-05-17T02:19:49.102Z,9.70
2019-05-17T02:22:16.858Z,9.60
2019-05-17T02:24:46.456Z,9.88
2019-05-17T02:27:14.160Z,9.71
2019-05-17T02:29:42.411Z,9.76
2019-05-17T02:32:12.811Z,9.54
2019-05-17T02:34:43.004Z,9.63
2019-05-17T02:37:13.406Z,9.57
2019-05-17T02:39:57.109Z,9.59
2019-05-17T02:42:09.152Z,9.59
2019-05-17T02:44:37.006Z,9.65
2019-05-17T02:47:04.377Z,9.66
2019-05-17T02:49:33.021Z,9.55
2019-05-17T02:52:03.315Z,9.41
2019-05-17T02:54:32.782Z,9.58
2019-05-17T02:57:02.813Z,9.46
2019-05-17T02:59:28.940Z,9.48
2019-05-17T03:01:56.346Z,9.41
2019-05-17T03:04:24.046Z,9.44
2019-05-17T03:06:53.238Z,9.44
2019-05-17T03:09:22.846Z,9.40
2019-05-17T03:11:52.917Z,9.40
2019-05-17T03:14:19.311Z,9.50
2019-05-17T03:16:46.677Z,9.46
2019-05-17T03:19:14.164Z,9.44
2019-05-17T03:21:42.863Z,9.49
2019-05-17T03:24:13.704Z,9.43
2019-05-17T03:26:42.736Z,9.54
2019-05-17T03:29:09.189Z,9.49
2019-05-17T03:31:44.844Z,9.52
2019-05-17T03:34:07.468Z,9.39
2019-05-17T03:36:37.174Z,9.41
2019-05-17T03:39:06.007Z,9.44
2019-05-17T03:41:34.224Z,9.56
2019-05-17T03:44:03.220Z,9.42
2019-05-17T03:46:33.406Z,9.33
2019-05-17T03:49:03.487Z,9.46
2019-05-17T03:51:33.053Z,9.42
2019-05-17T03:54:02.140Z,9.46
2019-05-17T03:56:29.305Z,9.53
2019-05-17T03:58:56.661Z,9.58
2019-05-17T04:01:24.069Z,9.47
2019-05-17T04:03:52.985Z,9.57
2019-05-17T04:06:23.718Z,9.55
2019-05-17T04:08:52.645Z,9.60
2019-05-17T04:11:27.947Z,9.61
2019-05-17T04:13:48.763Z,9.54
2019-05-17T04:16:16.142Z,9.59
2019-05-17T04:18:43.922Z,9.59
2019-05-17T04:21:12.633Z,9.57
2019-05-17T04:23:42.867Z,9.62
2019-05-17T04:26:09.676Z,9.69
2019-05-17T04:28:37.085Z,9.90
2019-05-17T04:31:04.869Z,9.67
2019-05-17T04:33:33.709Z,9.96
2019-05-17T04:36:02.648Z,9.82
2019-05-17T04:38:33.120Z,9.77
2019-05-17T04:41:03.212Z,9.88
2019-05-17T04:43:33.398Z,9.86
2019-05-17T04:46:02.818Z,9.70
2019-05-17T04:48:32.463Z,9.83
2019-05-17T04:51:02.245Z,9.83
2019-05-17T04:53:28.563Z,9.78
2019-05-17T04:55:55.962Z,9.85
2019-05-17T04:58:23.720Z,10.01
2019-05-17T05:00:53.680Z,10.02
2019-05-17T05:03:22.996Z,10.04
2019-05-17T05:05:53.186Z,10.04
2019-05-17T05:08:22.227Z,10.20
2019-05-17T05:10:48.783Z,10.12
2019-05-17T05:13:16.166Z,9.90
2019-05-17T05:15:44.769Z,10.22
2019-05-17T05:18:13.729Z,9.87
2019-05-17T05:20:43.535Z,10.00
2019-05-17T05:23:12.981Z,10.19
2019-05-17T05:25:42.904Z,10.08
2019-05-17T05:28:11.480Z,10.11
2019-05-17T05:30:41.940Z,10.05
2019-05-17T05:33:08.752Z,9.93
2019-05-17T05:35:36.651Z,10.06
2019-05-17T05:38:04.115Z,10.03
2019-05-17T05:40:32.566Z,10.29
2019-05-17T05:43:02.148Z,10.19
2019-05-17T05:45:31.928Z,10.20
2019-05-17T05:47:58.911Z,10.15
2019-05-17T05:50:26.424Z,10.35
2019-05-17T05:52:53.860Z,10.51
2019-05-17T05:55:23.395Z,10.23
2019-05-17T05:57:52.194Z,10.49
2019-05-17T06:00:22.102Z,10.62
2019-05-17T06:02:52.207Z,10.74
2019-05-17T06:05:21.905Z,10.51
2019-05-17T06:07:49.519Z,10.31
2019-05-17T06:10:16.918Z,10.41
2019-05-17T06:12:44.285Z,10.39
2019-05-17T06:15:12.829Z,10.36
2019-05-17T06:17:42.960Z,10.44
2019-05-17T06:20:11.731Z,10.54
2019-05-17T06:22:39.294Z,10.39
2019-05-17T06:25:07.759Z,10.66
2019-05-17T06:27:34.980Z,10.63
2019-05-17T06:30:02.565Z,10.58
2019-05-17T06:32:31.703Z,10.58
2019-05-17T06:35:01.689Z,10.60
2019-05-17T06:37:28.646Z,10.73
2019-05-17T06:39:56.085Z,10.79
2019-05-17T06:42:37.244Z,10.99
2019-05-17T06:44:53.446Z,10.82
2019-05-17T06:47:22.563Z,10.75
2019-05-17T06:49:50.599Z,10.68
2019-05-17T06:52:19.373Z,10.85
2019-05-17T06:54:46.875Z,10.82
2019-05-17T06:57:14.516Z,10.76
2019-05-17T06:59:41.862Z,10.75
2019-05-17T07:02:10.451Z,10.73
2019-05-17T07:04:39.534Z,10.96
2019-05-17T07:07:25.036Z,10.84
2019-05-17T07:09:52.517Z,11.11
2019-05-17T07:12:20.454Z,11.15
2019-05-17T07:14:50.559Z,11.25
2019-05-17T07:17:19.585Z,10.93
2019-05-17T07:19:46.785Z,11.04
2019-05-17T07:22:14.545Z,10.98
2019-05-17T07:24:41.947Z,11.03
2019-05-17T07:27:09.997Z,11.28
2019-05-17T07:29:40.180Z,11.18
2019-05-17T07:32:09.689Z,11.17
2019-05-17T07:34:36.620Z,11.06
2019-05-17T07:37:03.869Z,11.17
2019-05-17T07:39:31.085Z,10.93
2019-05-17T07:41:59.953Z,10.94
2019-05-17T07:44:29.534Z,10.65
2019-05-17T07:46:56.803Z,10.89
2019-05-17T07:49:23.977Z,10.83
2019-05-17T07:51:51.213Z,10.98
2019-05-17T07:54:19.721Z,11.12
2019-05-17T07:56:47.047Z,11.18
2019-05-17T07:59:14.285Z,11.32
2019-05-17T08:01:41.477Z,11.41
2019-05-17T08:04:09.988Z,11.25
2019-05-17T08:06:40.010Z,11.35
2019-05-17T08:09:06.853Z,11.50
2019-05-17T08:11:34.057Z,11.34
2019-05-17T08:14:01.640Z,11.36
2019-05-17T08:16:30.411Z,11.34
2019-05-17T08:19:00.259Z,11.13
2019-05-17T08:21:27.270Z,11.44
2019-05-17T08:23:54.459Z,11.41
2019-05-17T08:26:21.673Z,11.51
2019-05-17T08:28:50.277Z,11.31
2019-05-17T08:31:20.020Z,11.34
2019-05-17T08:33:46.841Z,11.33
2019-05-17T08:36:14.062Z,11.50
2019-05-17T08:38:41.700Z,11.43
2019-05-17T08:41:10.519Z,11.51
2019-05-17T08:43:45.774Z,11.65
2019-05-17T08:46:08.168Z,11.20
2019-05-17T08:48:37.049Z,11.61
2019-05-17T08:51:04.306Z,11.55
2019-05-17T08:53:31.507Z,11.68
2019-05-17T08:56:00.994Z,11.64
2019-05-17T08:58:29.732Z,11.96
2019-05-17T09:00:57.110Z,11.82
2019-05-17T09:03:24.318Z,11.71
2019-05-17T09:05:52.645Z,12.30
2019-05-17T09:08:20.747Z,12.08
2019-05-17T09:10:50.480Z,12.32
2019-05-17T09:13:19.585Z,12.43
2019-05-17T09:15:49.329Z,12.20
2019-05-17T09:18:16.405Z,12.07
2019-05-17T09:20:43.606Z,11.86
2019-05-17T09:23:10.817Z,11.91
2019-05-17T09:25:39.790Z,11.97
2019-05-17T09:28:09.883Z,11.69
2019-05-17T09:30:36.572Z,11.81
2019-05-17T09:33:03.783Z,12.22
2019-05-17T09:35:31.494Z,11.76
2019-05-17T09:38:00.499Z,11.92
2019-05-17T09:40:29.288Z,11.84
2019-05-17T09:43:34.301Z,11.89
2019-05-17T09:46:01.940Z,11.88
2019-05-17T09:48:30.590Z,12.06
2019-05-17T09:50:59.897Z,11.96
2019-05-17T09:53:27.557Z,12.70
2019-05-17T09:55:54.753Z,12.69
2019-05-17T09:58:21.956Z,12.64
2019-05-17T10:00:49.631Z,13.21
2019-05-17T10:03:16.883Z,13.47
2019-05-17T10:05:44.209Z,13.06
2019-05-17T10:08:11.789Z,13.08
2019-05-17T10:10:40.267Z,12.88
2019-05-17T10:13:09.777Z,12.36
2019-05-17T10:15:36.799Z,12.38
2019-05-17T10:18:04.298Z,12.42
2019-05-17T10:20:31.506Z,12.40
2019-05-17T10:22:59.619Z,12.40
2019-05-17T10:25:29.368Z,12.46
2019-05-17T10:27:56.618Z,12.76
2019-05-17T10:30:23.810Z,12.84
2019-05-17T10:32:51.025Z,12.62
2019-05-17T10:35:19.969Z,12.71
2019-05-17T10:37:50.361Z,12.57
2019-05-17T10:40:20.364Z,12.69
2019-05-17T10:42:47.018Z,12.93
2019-05-17T10:45:22.581Z,12.81
2019-05-17T10:47:50.313Z,13.19
2019-05-17T10:50:20.402Z,13.71
2019-05-17T10:52:47.227Z,13.54
2019-05-17T10:55:14.813Z,13.79
2019-05-17T10:57:42.010Z,14.33
2019-05-17T11:00:10.456Z,14.26
2019-05-17T11:02:37.756Z,13.74
2019-05-17T11:05:05.480Z,14.54
2019-05-17T11:07:32.724Z,14.57
2019-05-17T11:10:00.598Z,14.95
2019-05-17T11:12:28.185Z,14.61
2019-05-17T11:15:10.406Z,13.88
2019-05-17T11:17:25.261Z,15.02
2019-05-17T11:19:52.454Z,14.71
2019-05-17T11:22:22.740Z,14.13
2019-05-17T11:24:49.980Z,13.99
2019-05-17T11:27:19.255Z,14.55
2019-05-17T11:29:46.317Z,14.47
2019-05-17T11:32:13.839Z,14.09
2019-05-17T11:34:41.067Z,13.84
2019-05-17T11:37:08.251Z,13.83
2019-05-17T11:39:35.752Z,13.95
2019-05-17T11:42:03.260Z,14.40
2019-05-17T11:44:30.491Z,14.05
2019-05-17T11:46:57.754Z,14.10
2019-05-17T11:49:25.151Z,14.47
2019-05-17T11:51:53.599Z,14.48
2019-05-17T11:54:20.854Z,14.20
2019-05-17T11:56:48.058Z,14.09
2019-05-17T11:59:15.281Z,14.30
2019-05-17T12:01:42.990Z,14.48
2019-05-17T12:04:10.213Z,14.37
2019-05-17T12:06:37.515Z,14.22
2019-05-17T12:09:05.694Z,14.82
2019-05-17T12:11:32.923Z,15.85
2019-05-17T12:14:00.108Z,15.42
2019-05-17T12:16:27.714Z,15.46
2019-05-17T12:18:54.929Z,15.57
2019-05-17T12:21:22.131Z,16.01
2019-05-17T12:23:49.374Z,16.23
2019-05-17T12:26:16.877Z,16.01
2019-05-17T12:28:44.094Z,16.85
2019-05-17T12:31:11.286Z,16.71
2019-05-17T12:33:38.468Z,17.23
2019-05-17T12:36:06.280Z,16.85
2019-05-17T12:38:33.499Z,17.16
2019-05-17T12:41:00.696Z,16.60
2019-05-17T12:43:27.898Z,16.83
2019-05-17T12:46:00.595Z,16.60
2019-05-17T12:48:24.764Z,16.17
2019-05-17T12:50:51.971Z,15.26
2019-05-17T12:53:20.261Z,15.91
2019-05-17T12:55:47.497Z,15.50
2019-05-17T12:58:14.736Z,15.38
2019-05-17T13:00:42.383Z,15.24
2019-05-17T13:03:09.645Z,16.05
2019-05-17T13:05:36.875Z,17.33
2019-05-17T13:08:04.579Z,17.34
2019-05-17T13:10:31.795Z,16.36
2019-05-17T13:12:59.023Z,16.96
2019-05-17T13:15:26.275Z,16.16
2019-05-17T13:17:53.980Z,16.18
2019-05-17T13:20:21.288Z,16.43
2019-05-17T13:22:48.537Z,16.74
2019-05-17T13:25:16.155Z,16.82
2019-05-17T13:27:43.433Z,17.44
2019-05-17T13:30:11.389Z,16.91
2019-05-17T13:32:38.663Z,16.76
2019-05-17T13:35:06.549Z,16.88
2019-05-17T13:37:33.745Z,16.86
2019-05-17T13:40:00.960Z,16.56
2019-05-17T13:42:29.982Z,16.56
2019-05-17T13:44:57.143Z,16.53
2019-05-17T13:47:24.341Z,16.57
2019-05-17T13:49:51.565Z,16.27
2019-05-17T13:52:19.359Z,16.13
2019-05-17T13:54:47.902Z,15.95
2019-05-17T13:57:15.115Z,15.66
2019-05-17T13:59:42.422Z,16.09
2019-05-17T14:02:09.620Z,15.75
2019-05-17T14:04:37.298Z,15.89
2019-05-17T14:07:04.529Z,15.67
2019-05-17T14:09:31.788Z,15.75
2019-05-17T14:11:58.983Z,15.67
2019-05-17T14:14:26.669Z,15.67
2019-05-17T14:16:53.959Z,15.61
2019-05-17T14:19:21.535Z,15.75
2019-05-17T14:21:48.729Z,15.55
2019-05-17T14:24:15.930Z,15.61
2019-05-17T14:26:43.126Z,15.44
2019-05-17T14:29:10.348Z,15.51
2019-05-17T14:31:37.578Z,15.68
2019-05-17T14:34:04.872Z,15.55
2019-05-17T14:36:32.189Z,15.61
2019-05-17T14:38:59.681Z,15.60
2019-05-17T14:41:26.871Z,15.82
2019-05-17T14:43:54.121Z,16.01
2019-05-17T14:46:21.339Z,15.87
2019-05-17T14:48:48.548Z,15.98
2019-05-17T14:51:15.758Z,15.74
2019-05-17T14:53:42.989Z,15.93
2019-05-17T14:56:10.738Z,15.90
2019-05-17T14:58:38.009Z,15.59
2019-05-17T15:01:05.216Z,15.65
2019-05-17T15:03:32.479Z,15.68
2019-05-17T15:06:00.108Z,15.98
2019-05-17T15:08:27.286Z,16.15
2019-05-17T15:10:54.499Z,16.40
2019-05-17T15:13:21.711Z,16.47
2019-05-17T15:15:49.211Z,16.47
2019-05-17T15:18:16.425Z,16.66
2019-05-17T15:20:43.660Z,16.23
2019-05-17T15:23:11.268Z,16.31
2019-05-17T15:25:38.607Z,16.38
2019-05-17T15:28:05.851Z,16.69
2019-05-17T15:30:33.049Z,16.83
2019-05-17T15:33:02.897Z,16.77
2019-05-17T15:35:30.086Z,16.91
2019-05-17T15:37:57.287Z,16.26
2019-05-17T15:40:24.505Z,16.80
2019-05-17T15:42:51.782Z,16.47
2019-05-17T15:45:18.978Z,16.48
2019-05-17T15:47:46.521Z,16.20
2019-05-17T15:50:14.234Z,16.14
2019-05-17T15:52:41.446Z,16.42
2019-05-17T15:55:08.756Z,16.22
2019-05-17T15:57:37.135Z,16.16
2019-05-17T16:00:04.775Z,16.17
2019-05-17T16:02:32.057Z,16.32
2019-05-17T16:04:59.334Z,16.47
2019-05-17T16:07:27.017Z,16.18
2019-05-17T16:09:54.389Z,16.22
2019-05-17T16:12:21.638Z,16.36
2019-05-17T16:14:48.866Z,16.51
2019-05-17T16:17:16.078Z,16.77
2019-05-17T16:19:43.306Z,16.77
2019-05-17T16:22:10.520Z,16.62
2019-05-17T16:24:38.205Z,16.88
2019-05-17T16:27:05.435Z,16.74
2019-05-17T16:29:32.644Z,16.82
2019-05-17T16:31:59.885Z,16.64
2019-05-17T16:34:27.456Z,16.58
2019-05-17T16:36:54.646Z,16.50
2019-05-17T16:39:21.830Z,16.30
2019-05-17T16:41:49.034Z,16.26
2019-05-17T16:44:16.678Z,16.50
2019-05-17T16:46:43.858Z,16.41
2019-05-17T16:49:11.111Z,16.17
2019-05-17T16:51:38.290Z,16.30
2019-05-17T16:54:05.960Z,16.16
2019-05-17T16:56:33.175Z,16.40
2019-05-17T16:59:01.305Z,16.29
2019-05-17T17:01:28.497Z,16.31
2019-05-17T17:03:56.118Z,16.44
2019-05-17T17:06:23.318Z,16.26
2019-05-17T17:08:50.513Z,16.17
2019-05-17T17:11:18.114Z,16.03
2019-05-17T17:13:45.335Z,15.96
2019-05-17T17:16:12.518Z,16.02
2019-05-17T17:18:39.758Z,16.01
2019-05-17T17:21:07.331Z,15.99
2019-05-17T17:23:35.343Z,15.97
2019-05-17T17:26:02.544Z,16.12
2019-05-17T17:28:29.739Z,16.04
2019-05-17T17:30:57.206Z,15.92
2019-05-17T17:33:24.412Z,15.90
2019-05-17T17:35:51.726Z,15.96
2019-05-17T17:38:18.919Z,15.91
2019-05-17T17:40:46.576Z,16.01
2019-05-17T17:43:15.743Z,15.84
2019-05-17T17:45:42.916Z,15.96
2019-05-17T17:48:10.133Z,15.96
2019-05-17T17:50:37.655Z,15.92
2019-05-17T17:53:05.860Z,15.94
2019-05-17T17:55:33.207Z,15.74
2019-05-17T17:58:00.486Z,15.79
2019-05-17T18:00:28.057Z,15.84
2019-05-17T18:02:55.232Z,15.82
2019-05-17T18:05:25.042Z,15.78
2019-05-17T18:07:51.532Z,15.74
2019-05-17T18:10:29.689Z,15.70
2019-05-17T18:12:56.919Z,15.72
2019-05-17T18:15:38.853Z,15.68
2019-05-17T18:18:06.170Z,15.68
2019-05-17T18:20:33.451Z,15.61
2019-05-17T18:23:00.687Z,15.74
2019-05-17T18:25:28.153Z,15.65
2019-05-17T18:27:55.337Z,15.62
2019-05-17T18:30:22.569Z,15.74
2019-05-17T18:32:49.790Z,15.59
2019-05-17T18:35:17.477Z,15.55
2019-05-17T18:37:44.773Z,15.57
2019-05-17T18:40:12.073Z,15.65
2019-05-17T18:42:39.291Z,15.55
2019-05-17T18:45:08.625Z,15.49
2019-05-17T18:47:35.817Z,15.51
2019-05-17T18:50:03.454Z,15.38
2019-05-17T18:52:30.810Z,15.35
2019-05-17T18:54:58.389Z,15.39
2019-05-17T18:57:25.583Z,15.24
2019-05-17T18:59:53.299Z,15.22
2019-05-17T19:02:21.155Z,15.28
2019-05-17T19:04:48.801Z,15.28
2019-05-17T19:07:16.018Z,15.15
2019-05-17T19:09:43.232Z,15.15
2019-05-17T19:12:10.505Z,15.14
2019-05-17T19:14:42.855Z,15.18
2019-05-17T19:17:07.144Z,15.12
2019-05-17T19:19:34.341Z,14.98
2019-05-17T19:22:01.598Z,14.96
2019-05-17T19:24:29.269Z,15.03
2019-05-17T19:26:56.473Z,14.94
2019-05-17T19:29:23.695Z,14.94
2019-05-17T19:31:50.906Z,14.86
2019-05-17T19:34:18.388Z,14.71
2019-05-17T19:36:45.646Z,14.68
2019-05-17T19:39:12.870Z,14.68
2019-05-17T19:41:40.080Z,14.69
2019-05-17T19:44:07.752Z,14.61
2019-05-17T19:46:34.964Z,14.63
2019-05-17T19:49:02.166Z,14.54
2019-05-17T19:51:29.386Z,14.48
2019-05-17T19:53:56.934Z,14.49
2019-05-17T19:56:24.128Z,14.45
2019-05-17T19:58:51.329Z,14.40
2019-05-17T20:01:18.520Z,14.31
2019-05-17T20:03:47.178Z,14.29
2019-05-17T20:06:14.684Z,14.35
2019-05-17T20:08:42.216Z,14.27
2019-05-17T20:11:09.822Z,14.22
2019-05-17T20:13:38.813Z,14.22
2019-05-17T20:16:05.976Z,14.08
2019-05-17T20:18:33.182Z,14.08
2019-05-17T20:21:00.824Z,14.08
2019-05-17T20:23:28.026Z,13.96
2019-05-17T20:25:55.250Z,13.91
2019-05-17T20:28:22.495Z,13.95
2019-05-17T20:30:50.058Z,14.03
2019-05-17T20:33:19.230Z,13.83
2019-05-17T20:35:46.406Z,13.85
2019-05-17T20:38:13.602Z,13.74
2019-05-17T20:40:41.086Z,13.75
2019-05-17T20:43:08.318Z,13.72
2019-05-17T20:45:35.519Z,13.64
2019-05-17T20:48:02.713Z,13.63
2019-05-17T20:50:30.403Z,13.55
2019-05-17T20:52:57.559Z,13.45
2019-05-17T20:55:27.323Z,13.44
2019-05-17T20:57:54.685Z,13.35
2019-05-17T21:00:22.299Z,13.29
2019-05-17T21:02:49.491Z,13.27
2019-05-17T21:05:17.266Z,13.30
2019-05-17T21:07:44.634Z,13.26
2019-05-17T21:10:12.809Z,13.25
2019-05-17T21:12:40.050Z,13.13
2019-05-17T21:15:07.601Z,13.11
2019-05-17T21:17:34.799Z,13.01
2019-05-17T21:20:02.350Z,12.96
2019-05-17T21:22:29.604Z,12.98
2019-05-17T21:24:56.841Z,12.95
2019-05-17T21:27:24.042Z,12.90
2019-05-17T21:29:51.526Z,12.88
2019-05-17T21:32:18.710Z,12.85
2019-05-17T21:34:45.926Z,12.76
2019-05-17T21:37:13.125Z,12.81
2019-05-17T21:39:42.047Z,12.80
2019-05-17T21:42:09.573Z,12.76
2019-05-17T21:44:36.790Z,12.72
2019-05-17T21:47:05.111Z,12.69
2019-05-17T21:49:32.827Z,12.64
2019-05-17T21:52:00.020Z,12.54
2019-05-17T21:54:27.249Z,12.55
2019-05-17T21:56:54.494Z,12.51
2019-05-17T21:59:21.999Z,12.48
2019-05-17T22:01:49.309Z,12.44
2019-05-17T22:04:16.495Z,12.30
2019-05-17T22:06:43.779Z,12.29
2019-05-17T22:09:11.502Z,12.39
2019-05-17T22:11:40.622Z,12.29
2019-05-17T22:14:08.300Z,12.30
2019-05-17T22:16:35.554Z,12.32
2019-05-17T22:19:03.416Z,12.27
2019-05-17T22:21:30.676Z,12.32
2019-05-17T22:23:57.931Z,12.27
2019-05-17T22:26:25.406Z,12.28
2019-05-17T22:28:52.961Z,12.21
2019-05-17T22:31:20.422Z,12.21
2019-05-17T22:33:47.765Z,12.17
2019-05-17T22:36:15.117Z,12.15
2019-05-17T22:38:42.687Z,12.11
2019-05-17T22:41:10.762Z,12.07
2019-05-17T22:43:38.058Z,12.07
2019-05-17T22:46:05.314Z,11.94
2019-05-17T22:48:32.893Z,11.97
2019-05-17T22:51:00.060Z,11.95
2019-05-17T22:53:27.262Z,11.99
2019-05-17T22:55:54.555Z,11.98
2019-05-17T22:58:22.055Z,11.91
2019-05-17T23:00:49.250Z,11.98
2019-05-17T23:03:16.471Z,11.96
2019-05-17T23:05:43.667Z,11.97
2019-05-17T23:08:11.500Z,11.95
2019-05-17T23:10:39.511Z,12.10
2019-05-17T23:13:06.685Z,11.93
2019-05-17T23:15:45.271Z,12.01
2019-05-17T23:18:12.550Z,11.90
2019-05-17T23:20:39.743Z,11.85
2019-05-17T23:23:06.984Z,11.84
2019-05-17T23:25:34.639Z,11.90
2019-05-17T23:28:01.825Z,11.89
2019-05-17T23:30:29.023Z,11.90
2019-05-17T23:32:56.235Z,11.90
2019-05-17T23:35:23.898Z,11.93
2019-05-17T23:37:51.127Z,11.92
2019-05-17T23:40:18.451Z,11.90
2019-05-17T23:42:45.639Z,11.84
2019-05-17T23:45:13.439Z,11.77
2019-05-17T23:47:40.628Z,11.72
2019-05-17T23:50:08.335Z,11.78
2019-05-17T23:52:35.568Z,11.79
2019-05-17T23:55:03.777Z,11.85
2019-05-17T23:57:30.947Z,11.77
2019-05-17T23:59:58.147Z,11.68
